sensor_id;sensor_type;location;lat;lon;timestamp;temperature;humidity
26304;DHT22;57113;48.680;8.890;2023-05-07T00:01:48;15.70;99.90
26304;DHT22;57113;48.680;8.890;2023-05-07T00:04:14;15.70;99.90
26304;DHT22;57113;48.680;8.890;2023-05-07T00:06:39;15.70;99.90
26304;DHT22;57113;48.680;8.890;2023-05-07T00:09:06;15.70;99.90
26304;DHT22;57113;48.680;8.890;2023-05-07T00:11:32;15.70;99.90
26304;DHT22;57113;48.680;8.890;2023-05-07T00:13:57;15.70;99.90
26304;DHT22;57113;48.680;8.890;2023-05-07T00:16:23;15.70;99.90
26304;DHT22;57113;48.680;8.890;2023-05-07T00:18:49;15.70;99.90
26304;DHT22;57113;48.680;8.890;2023-05-07T00:21:14;15.70;99.90
26304;DHT22;57113;48.680;8.890;2023-05-07T00:23:40;15.60;99.90
26304;DHT22;57113;48.680;8.890;2023-05-07T00:26:05;15.60;99.90
26304;DHT22;57113;48.680;8.890;2023-05-07T00:28:31;15.60;99.90
26304;DHT22;57113;48.680;8.890;2023-05-07T00:30:57;15.60;99.90
26304;DHT22;57113;48.680;8.890;2023-05-07T00:33:22;15.60;99.90
26304;DHT22;57113;48.680;8.890;2023-05-07T00:35:48;15.60;99.90
26304;DHT22;57113;48.680;8.890;2023-05-07T00:38:14;15.60;99.90
26304;DHT22;57113;48.680;8.890;2023-05-07T00:40:40;15.60;99.90
26304;DHT22;57113;48.680;8.890;2023-05-07T00:43:06;15.60;99.90
26304;DHT22;57113;48.680;8.890;2023-05-07T00:45:32;15.60;99.90
26304;DHT22;57113;48.680;8.890;2023-05-07T00:48:00;15.60;99.90
26304;DHT22;57113;48.680;8.890;2023-05-07T00:50:26;15.60;99.90
26304;DHT22;57113;48.680;8.890;2023-05-07T00:52:53;15.60;99.90
26304;DHT22;57113;48.680;8.890;2023-05-07T00:55:18;15.60;99.90
26304;DHT22;57113;48.680;8.890;2023-05-07T00:57:44;15.60;99.90
26304;DHT22;57113;48.680;8.890;2023-05-07T01:00:11;15.60;99.90
26304;DHT22;57113;48.680;8.890;2023-05-07T01:02:40;15.60;99.90
26304;DHT22;57113;48.680;8.890;2023-05-07T01:05:08;15.60;99.90
26304;DHT22;57113;48.680;8.890;2023-05-07T01:07:35;15.60;99.90
26304;DHT22;57113;48.680;8.890;2023-05-07T01:10:03;15.60;99.90
26304;DHT22;57113;48.680;8.890;2023-05-07T01:12:29;15.50;99.90
26304;DHT22;57113;48.680;8.890;2023-05-07T01:14:56;15.50;99.90
26304;DHT22;57113;48.680;8.890;2023-05-07T01:17:22;15.50;99.90
26304;DHT22;57113;48.680;8.890;2023-05-07T01:19:48;15.50;99.90
26304;DHT22;57113;48.680;8.890;2023-05-07T01:22:15;15.50;99.90
26304;DHT22;57113;48.680;8.890;2023-05-07T01:24:42;15.50;99.90
26304;DHT22;57113;48.680;8.890;2023-05-07T01:27:08;15.50;99.90
26304;DHT22;57113;48.680;8.890;2023-05-07T01:29:34;15.50;99.90
26304;DHT22;57113;48.680;8.890;2023-05-07T01:32:00;15.50;99.90
26304;DHT22;57113;48.680;8.890;2023-05-07T01:34:28;15.50;99.90
26304;DHT22;57113;48.680;8.890;2023-05-07T01:36:55;15.50;99.90
26304;DHT22;57113;48.680;8.890;2023-05-07T01:39:25;15.50;99.90
26304;DHT22;57113;48.680;8.890;2023-05-07T01:41:51;15.50;99.90
26304;DHT22;57113;48.680;8.890;2023-05-07T01:44:17;15.50;99.90
26304;DHT22;57113;48.680;8.890;2023-05-07T01:46:43;15.50;99.90
26304;DHT22;57113;48.680;8.890;2023-05-07T01:49:10;15.40;99.90
26304;DHT22;57113;48.680;8.890;2023-05-07T01:51:35;15.50;99.90
26304;DHT22;57113;48.680;8.890;2023-05-07T01:54:01;15.50;99.90
26304;DHT22;57113;48.680;8.890;2023-05-07T01:56:27;15.50;99.90
26304;DHT22;57113;48.680;8.890;2023-05-07T01:58:52;15.40;99.90
26304;DHT22;57113;48.680;8.890;2023-05-07T02:01:18;15.40;99.90
26304;DHT22;57113;48.680;8.890;2023-05-07T02:03:44;15.40;99.90
26304;DHT22;57113;48.680;8.890;2023-05-07T02:06:10;15.40;99.90
26304;DHT22;57113;48.680;8.890;2023-05-07T02:08:35;15.40;99.90
26304;DHT22;57113;48.680;8.890;2023-05-07T02:11:01;15.40;99.90
26304;DHT22;57113;48.680;8.890;2023-05-07T02:13:30;15.40;99.90
26304;DHT22;57113;48.680;8.890;2023-05-07T02:15:55;15.40;99.90
26304;DHT22;57113;48.680;8.890;2023-05-07T02:18:21;15.40;99.90
26304;DHT22;57113;48.680;8.890;2023-05-07T02:20:47;15.40;99.90
26304;DHT22;57113;48.680;8.890;2023-05-07T02:23:12;15.40;99.90
26304;DHT22;57113;48.680;8.890;2023-05-07T02:25:38;15.40;99.90
26304;DHT22;57113;48.680;8.890;2023-05-07T02:28:03;15.30;99.90
26304;DHT22;57113;48.680;8.890;2023-05-07T02:30:29;15.40;99.90
26304;DHT22;57113;48.680;8.890;2023-05-07T02:32:55;15.40;99.90
26304;DHT22;57113;48.680;8.890;2023-05-07T02:35:20;15.30;99.90
26304;DHT22;57113;48.680;8.890;2023-05-07T02:37:46;15.30;99.90
26304;DHT22;57113;48.680;8.890;2023-05-07T02:40:12;15.30;99.90
26304;DHT22;57113;48.680;8.890;2023-05-07T02:42:37;15.30;99.90
26304;DHT22;57113;48.680;8.890;2023-05-07T02:45:03;15.30;99.90
26304;DHT22;57113;48.680;8.890;2023-05-07T02:47:29;15.30;99.90
26304;DHT22;57113;48.680;8.890;2023-05-07T02:49:55;15.30;99.90
26304;DHT22;57113;48.680;8.890;2023-05-07T02:52:21;15.30;99.90
26304;DHT22;57113;48.680;8.890;2023-05-07T02:54:47;15.30;99.90
26304;DHT22;57113;48.680;8.890;2023-05-07T02:57:12;15.30;99.90
26304;DHT22;57113;48.680;8.890;2023-05-07T02:59:38;15.30;99.90
26304;DHT22;57113;48.680;8.890;2023-05-07T03:02:04;15.30;99.90
26304;DHT22;57113;48.680;8.890;2023-05-07T03:04:29;15.30;99.90
26304;DHT22;57113;48.680;8.890;2023-05-07T03:06:55;15.30;99.90
26304;DHT22;57113;48.680;8.890;2023-05-07T03:09:20;15.20;99.90
26304;DHT22;57113;48.680;8.890;2023-05-07T03:11:46;15.30;99.90
26304;DHT22;57113;48.680;8.890;2023-05-07T03:14:12;15.30;99.90
26304;DHT22;57113;48.680;8.890;2023-05-07T03:16:38;15.30;99.90
26304;DHT22;57113;48.680;8.890;2023-05-07T03:19:04;15.20;99.90
26304;DHT22;57113;48.680;8.890;2023-05-07T03:21:30;15.20;99.90
26304;DHT22;57113;48.680;8.890;2023-05-07T03:23:56;15.20;99.90
26304;DHT22;57113;48.680;8.890;2023-05-07T03:26:21;15.20;99.90
26304;DHT22;57113;48.680;8.890;2023-05-07T03:28:47;15.20;99.90
26304;DHT22;57113;48.680;8.890;2023-05-07T03:31:13;15.20;99.90
26304;DHT22;57113;48.680;8.890;2023-05-07T03:33:56;15.20;99.90
26304;DHT22;57113;48.680;8.890;2023-05-07T03:36:22;15.20;99.90
26304;DHT22;57113;48.680;8.890;2023-05-07T03:38:48;15.20;99.90
26304;DHT22;57113;48.680;8.890;2023-05-07T03:41:14;15.20;99.90
26304;DHT22;57113;48.680;8.890;2023-05-07T03:43:40;15.20;99.90
26304;DHT22;57113;48.680;8.890;2023-05-07T03:46:06;15.10;99.90
26304;DHT22;57113;48.680;8.890;2023-05-07T03:48:31;15.20;99.90
26304;DHT22;57113;48.680;8.890;2023-05-07T03:50:58;15.20;99.90
26304;DHT22;57113;48.680;8.890;2023-05-07T03:53:23;15.20;99.90
26304;DHT22;57113;48.680;8.890;2023-05-07T03:55:49;15.20;99.90
26304;DHT22;57113;48.680;8.890;2023-05-07T03:58:15;15.10;99.90
26304;DHT22;57113;48.680;8.890;2023-05-07T04:00:41;15.20;99.90
26304;DHT22;57113;48.680;8.890;2023-05-07T04:03:07;15.10;99.90
26304;DHT22;57113;48.680;8.890;2023-05-07T04:05:32;15.10;99.90
26304;DHT22;57113;48.680;8.890;2023-05-07T04:07:58;15.10;99.90
26304;DHT22;57113;48.680;8.890;2023-05-07T04:10:24;15.10;99.90
26304;DHT22;57113;48.680;8.890;2023-05-07T04:12:50;15.10;99.90
26304;DHT22;57113;48.680;8.890;2023-05-07T04:15:16;15.10;99.90
26304;DHT22;57113;48.680;8.890;2023-05-07T04:17:41;15.10;99.90
26304;DHT22;57113;48.680;8.890;2023-05-07T04:20:14;15.10;99.90
26304;DHT22;57113;48.680;8.890;2023-05-07T04:22:39;15.10;99.90
26304;DHT22;57113;48.680;8.890;2023-05-07T04:25:06;15.10;99.90
26304;DHT22;57113;48.680;8.890;2023-05-07T04:27:31;15.10;99.90
26304;DHT22;57113;48.680;8.890;2023-05-07T04:29:57;15.10;99.90
26304;DHT22;57113;48.680;8.890;2023-05-07T04:32:23;15.10;99.90
26304;DHT22;57113;48.680;8.890;2023-05-07T04:34:50;15.10;99.90
26304;DHT22;57113;48.680;8.890;2023-05-07T04:37:16;15.10;99.90
26304;DHT22;57113;48.680;8.890;2023-05-07T04:39:41;15.10;99.90
26304;DHT22;57113;48.680;8.890;2023-05-07T04:42:07;15.10;99.90
26304;DHT22;57113;48.680;8.890;2023-05-07T04:44:34;15.10;99.90
26304;DHT22;57113;48.680;8.890;2023-05-07T04:47:00;15.00;99.90
26304;DHT22;57113;48.680;8.890;2023-05-07T04:49:26;15.00;99.90
26304;DHT22;57113;48.680;8.890;2023-05-07T04:51:52;15.00;99.90
26304;DHT22;57113;48.680;8.890;2023-05-07T04:54:18;15.10;99.90
26304;DHT22;57113;48.680;8.890;2023-05-07T04:56:43;15.10;99.90
26304;DHT22;57113;48.680;8.890;2023-05-07T04:59:09;15.00;99.90
26304;DHT22;57113;48.680;8.890;2023-05-07T05:01:34;15.00;99.90
26304;DHT22;57113;48.680;8.890;2023-05-07T05:04:00;15.00;99.90
26304;DHT22;57113;48.680;8.890;2023-05-07T05:06:26;15.10;99.90
26304;DHT22;57113;48.680;8.890;2023-05-07T05:08:51;15.00;99.90
26304;DHT22;57113;48.680;8.890;2023-05-07T05:11:17;15.00;99.90
26304;DHT22;57113;48.680;8.890;2023-05-07T05:13:43;15.00;99.90
26304;DHT22;57113;48.680;8.890;2023-05-07T05:16:08;15.00;99.90
26304;DHT22;57113;48.680;8.890;2023-05-07T05:18:34;15.10;99.90
26304;DHT22;57113;48.680;8.890;2023-05-07T05:21:00;15.00;99.90
26304;DHT22;57113;48.680;8.890;2023-05-07T05:23:26;15.00;99.90
26304;DHT22;57113;48.680;8.890;2023-05-07T05:25:56;15.10;99.90
26304;DHT22;57113;48.680;8.890;2023-05-07T05:28:23;15.10;99.90
26304;DHT22;57113;48.680;8.890;2023-05-07T05:30:49;15.10;99.90
26304;DHT22;57113;48.680;8.890;2023-05-07T05:33:15;15.10;99.90
26304;DHT22;57113;48.680;8.890;2023-05-07T05:35:41;15.10;99.90
26304;DHT22;57113;48.680;8.890;2023-05-07T05:38:06;15.10;99.90
26304;DHT22;57113;48.680;8.890;2023-05-07T05:40:32;15.10;99.90
26304;DHT22;57113;48.680;8.890;2023-05-07T05:42:58;15.10;99.90
26304;DHT22;57113;48.680;8.890;2023-05-07T05:45:24;15.20;99.90
26304;DHT22;57113;48.680;8.890;2023-05-07T05:47:50;15.20;99.90
26304;DHT22;57113;48.680;8.890;2023-05-07T05:50:16;15.10;99.90
26304;DHT22;57113;48.680;8.890;2023-05-07T05:52:41;15.20;99.90
26304;DHT22;57113;48.680;8.890;2023-05-07T05:55:07;15.20;99.90
26304;DHT22;57113;48.680;8.890;2023-05-07T05:57:33;15.20;99.90
26304;DHT22;57113;48.680;8.890;2023-05-07T06:00:00;15.20;99.90
26304;DHT22;57113;48.680;8.890;2023-05-07T06:02:26;15.20;99.90
26304;DHT22;57113;48.680;8.890;2023-05-07T06:04:51;15.20;99.90
26304;DHT22;57113;48.680;8.890;2023-05-07T06:07:17;15.30;99.90
26304;DHT22;57113;48.680;8.890;2023-05-07T06:09:42;15.30;99.90
26304;DHT22;57113;48.680;8.890;2023-05-07T06:12:08;15.30;99.90
26304;DHT22;57113;48.680;8.890;2023-05-07T06:14:34;15.30;99.90
26304;DHT22;57113;48.680;8.890;2023-05-07T06:16:59;15.30;99.90
26304;DHT22;57113;48.680;8.890;2023-05-07T06:19:25;15.30;99.90
26304;DHT22;57113;48.680;8.890;2023-05-07T06:21:52;15.30;99.90
26304;DHT22;57113;48.680;8.890;2023-05-07T06:24:17;15.30;99.90
26304;DHT22;57113;48.680;8.890;2023-05-07T06:26:43;15.30;99.90
26304;DHT22;57113;48.680;8.890;2023-05-07T06:29:08;15.30;99.90
26304;DHT22;57113;48.680;8.890;2023-05-07T06:31:34;15.30;99.90
26304;DHT22;57113;48.680;8.890;2023-05-07T06:33:59;15.30;99.90
26304;DHT22;57113;48.680;8.890;2023-05-07T06:36:27;15.30;99.90
26304;DHT22;57113;48.680;8.890;2023-05-07T06:38:53;15.30;99.90
26304;DHT22;57113;48.680;8.890;2023-05-07T06:41:19;15.30;99.90
26304;DHT22;57113;48.680;8.890;2023-05-07T06:43:45;15.40;99.90
26304;DHT22;57113;48.680;8.890;2023-05-07T06:46:11;15.40;99.90
26304;DHT22;57113;48.680;8.890;2023-05-07T06:48:37;15.40;99.90
26304;DHT22;57113;48.680;8.890;2023-05-07T06:51:02;15.40;99.90
26304;DHT22;57113;48.680;8.890;2023-05-07T06:53:28;15.40;99.90
26304;DHT22;57113;48.680;8.890;2023-05-07T06:55:56;15.40;99.90
26304;DHT22;57113;48.680;8.890;2023-05-07T06:58:21;15.40;99.90
26304;DHT22;57113;48.680;8.890;2023-05-07T07:00:47;15.40;99.90
26304;DHT22;57113;48.680;8.890;2023-05-07T07:03:13;15.40;99.90
26304;DHT22;57113;48.680;8.890;2023-05-07T07:05:40;15.40;99.90
26304;DHT22;57113;48.680;8.890;2023-05-07T07:08:05;15.40;99.90
26304;DHT22;57113;48.680;8.890;2023-05-07T07:10:31;15.40;99.90
26304;DHT22;57113;48.680;8.890;2023-05-07T07:12:56;15.40;99.90
26304;DHT22;57113;48.680;8.890;2023-05-07T07:15:22;15.40;99.90
26304;DHT22;57113;48.680;8.890;2023-05-07T07:17:50;15.40;99.90
26304;DHT22;57113;48.680;8.890;2023-05-07T07:20:16;15.40;99.90
26304;DHT22;57113;48.680;8.890;2023-05-07T07:22:41;15.40;99.90
26304;DHT22;57113;48.680;8.890;2023-05-07T07:25:07;15.40;99.90
26304;DHT22;57113;48.680;8.890;2023-05-07T07:27:33;15.50;99.90
26304;DHT22;57113;48.680;8.890;2023-05-07T07:29:59;15.40;99.90
26304;DHT22;57113;48.680;8.890;2023-05-07T07:32:24;15.40;99.90
26304;DHT22;57113;48.680;8.890;2023-05-07T07:34:51;15.50;99.90
26304;DHT22;57113;48.680;8.890;2023-05-07T07:37:16;15.50;99.90
26304;DHT22;57113;48.680;8.890;2023-05-07T07:39:42;15.50;99.90
26304;DHT22;57113;48.680;8.890;2023-05-07T07:42:07;15.50;99.90
26304;DHT22;57113;48.680;8.890;2023-05-07T07:44:33;15.50;99.90
26304;DHT22;57113;48.680;8.890;2023-05-07T07:46:59;15.50;99.90
26304;DHT22;57113;48.680;8.890;2023-05-07T07:49:24;15.50;99.90
26304;DHT22;57113;48.680;8.890;2023-05-07T07:51:50;15.50;99.90
26304;DHT22;57113;48.680;8.890;2023-05-07T07:54:16;15.50;99.90
26304;DHT22;57113;48.680;8.890;2023-05-07T07:56:42;15.50;99.90
26304;DHT22;57113;48.680;8.890;2023-05-07T07:59:07;15.50;99.90
26304;DHT22;57113;48.680;8.890;2023-05-07T08:01:33;15.50;99.90
26304;DHT22;57113;48.680;8.890;2023-05-07T08:03:58;15.50;99.90
26304;DHT22;57113;48.680;8.890;2023-05-07T08:06:24;15.50;99.90
26304;DHT22;57113;48.680;8.890;2023-05-07T08:08:53;15.50;99.90
26304;DHT22;57113;48.680;8.890;2023-05-07T08:11:19;15.60;99.90
26304;DHT22;57113;48.680;8.890;2023-05-07T08:13:45;15.60;99.90
26304;DHT22;57113;48.680;8.890;2023-05-07T08:16:11;15.60;99.90
26304;DHT22;57113;48.680;8.890;2023-05-07T08:18:37;15.60;99.90
26304;DHT22;57113;48.680;8.890;2023-05-07T08:21:02;15.60;99.90
26304;DHT22;57113;48.680;8.890;2023-05-07T08:23:28;15.60;99.90
26304;DHT22;57113;48.680;8.890;2023-05-07T08:25:54;15.60;99.90
26304;DHT22;57113;48.680;8.890;2023-05-07T08:28:19;15.70;99.90
26304;DHT22;57113;48.680;8.890;2023-05-07T08:30:46;15.60;99.90
26304;DHT22;57113;48.680;8.890;2023-05-07T08:33:12;15.70;99.90
26304;DHT22;57113;48.680;8.890;2023-05-07T08:35:38;15.70;99.90
26304;DHT22;57113;48.680;8.890;2023-05-07T08:38:03;15.70;99.90
26304;DHT22;57113;48.680;8.890;2023-05-07T08:40:35;15.60;99.90
26304;DHT22;57113;48.680;8.890;2023-05-07T08:43:02;15.70;99.90
26304;DHT22;57113;48.680;8.890;2023-05-07T08:45:30;15.70;99.90
26304;DHT22;57113;48.680;8.890;2023-05-07T08:48:01;15.70;99.90
26304;DHT22;57113;48.680;8.890;2023-05-07T08:50:27;15.70;99.90
26304;DHT22;57113;48.680;8.890;2023-05-07T08:52:53;15.70;99.90
26304;DHT22;57113;48.680;8.890;2023-05-07T08:55:20;15.70;99.90
26304;DHT22;57113;48.680;8.890;2023-05-07T08:57:45;15.70;99.90
26304;DHT22;57113;48.680;8.890;2023-05-07T09:00:12;15.70;99.90
26304;DHT22;57113;48.680;8.890;2023-05-07T09:02:38;15.70;99.90
26304;DHT22;57113;48.680;8.890;2023-05-07T09:05:04;15.70;99.90
26304;DHT22;57113;48.680;8.890;2023-05-07T09:07:31;15.80;99.90
26304;DHT22;57113;48.680;8.890;2023-05-07T09:09:56;15.70;99.90
26304;DHT22;57113;48.680;8.890;2023-05-07T09:12:23;15.80;99.90
26304;DHT22;57113;48.680;8.890;2023-05-07T09:14:49;15.70;99.90
26304;DHT22;57113;48.680;8.890;2023-05-07T09:17:16;15.80;99.90
26304;DHT22;57113;48.680;8.890;2023-05-07T09:19:46;15.80;99.90
26304;DHT22;57113;48.680;8.890;2023-05-07T09:22:13;15.80;99.90
26304;DHT22;57113;48.680;8.890;2023-05-07T09:24:38;15.80;99.90
26304;DHT22;57113;48.680;8.890;2023-05-07T09:27:05;15.80;99.90
26304;DHT22;57113;48.680;8.890;2023-05-07T09:29:31;15.80;99.90
26304;DHT22;57113;48.680;8.890;2023-05-07T09:32:04;15.80;99.90
26304;DHT22;57113;48.680;8.890;2023-05-07T09:34:30;15.80;99.90
26304;DHT22;57113;48.680;8.890;2023-05-07T09:37:01;15.80;99.90
26304;DHT22;57113;48.680;8.890;2023-05-07T09:39:39;15.90;99.90
26304;DHT22;57113;48.680;8.890;2023-05-07T09:42:05;15.90;99.90
26304;DHT22;57113;48.680;8.890;2023-05-07T09:44:32;15.90;99.90
26304;DHT22;57113;48.680;8.890;2023-05-07T09:47:00;15.90;99.90
26304;DHT22;57113;48.680;8.890;2023-05-07T09:49:29;15.90;99.90
26304;DHT22;57113;48.680;8.890;2023-05-07T09:51:55;15.90;99.90
26304;DHT22;57113;48.680;8.890;2023-05-07T09:54:22;15.90;99.90
26304;DHT22;57113;48.680;8.890;2023-05-07T09:56:52;15.90;99.90
26304;DHT22;57113;48.680;8.890;2023-05-07T09:59:18;15.90;99.90
26304;DHT22;57113;48.680;8.890;2023-05-07T10:01:46;15.90;99.90
26304;DHT22;57113;48.680;8.890;2023-05-07T10:04:12;15.90;99.90
26304;DHT22;57113;48.680;8.890;2023-05-07T10:06:38;15.90;99.90
26304;DHT22;57113;48.680;8.890;2023-05-07T10:09:04;15.90;99.90
26304;DHT22;57113;48.680;8.890;2023-05-07T10:11:35;15.90;99.90
26304;DHT22;57113;48.680;8.890;2023-05-07T10:14:02;15.90;99.90
26304;DHT22;57113;48.680;8.890;2023-05-07T10:16:32;16.00;99.90
26304;DHT22;57113;48.680;8.890;2023-05-07T10:19:05;16.00;99.90
26304;DHT22;57113;48.680;8.890;2023-05-07T10:21:35;16.00;99.90
26304;DHT22;57113;48.680;8.890;2023-05-07T10:24:08;16.00;99.90
26304;DHT22;57113;48.680;8.890;2023-05-07T10:26:42;16.00;99.90
26304;DHT22;57113;48.680;8.890;2023-05-07T10:29:14;16.00;99.90
26304;DHT22;57113;48.680;8.890;2023-05-07T10:34:18;16.00;99.90
26304;DHT22;57113;48.680;8.890;2023-05-07T10:36:46;16.10;99.90
26304;DHT22;57113;48.680;8.890;2023-05-07T10:39:13;16.00;99.90
26304;DHT22;57113;48.680;8.890;2023-05-07T10:41:39;16.00;99.90
26304;DHT22;57113;48.680;8.890;2023-05-07T10:44:05;16.10;99.90
26304;DHT22;57113;48.680;8.890;2023-05-07T10:46:31;16.10;99.90
26304;DHT22;57113;48.680;8.890;2023-05-07T10:51:26;16.10;99.90
26304;DHT22;57113;48.680;8.890;2023-05-07T10:54:18;16.10;99.90
26304;DHT22;57113;48.680;8.890;2023-05-07T10:56:47;16.00;99.90
26304;DHT22;57113;48.680;8.890;2023-05-07T11:02:00;16.10;99.90
26304;DHT22;57113;48.680;8.890;2023-05-07T11:04:29;16.10;99.90
26304;DHT22;57113;48.680;8.890;2023-05-07T11:09:54;16.10;99.90
26304;DHT22;57113;48.680;8.890;2023-05-07T11:15:04;16.10;99.90
26304;DHT22;57113;48.680;8.890;2023-05-07T11:17:31;16.10;99.90
26304;DHT22;57113;48.680;8.890;2023-05-07T11:20:00;16.10;99.90
26304;DHT22;57113;48.680;8.890;2023-05-07T11:25:04;16.10;99.90
26304;DHT22;57113;48.680;8.890;2023-05-07T11:27:31;16.10;99.90
26304;DHT22;57113;48.680;8.890;2023-05-07T11:29:57;16.10;99.90
26304;DHT22;57113;48.680;8.890;2023-05-07T11:32:27;16.10;99.90
26304;DHT22;57113;48.680;8.890;2023-05-07T11:34:57;16.10;99.90
26304;DHT22;57113;48.680;8.890;2023-05-07T11:37:25;16.10;99.90
26304;DHT22;57113;48.680;8.890;2023-05-07T11:40:05;16.10;99.90
26304;DHT22;57113;48.680;8.890;2023-05-07T11:42:36;16.10;99.90
26304;DHT22;57113;48.680;8.890;2023-05-07T11:45:07;16.10;99.90
26304;DHT22;57113;48.680;8.890;2023-05-07T11:47:33;16.10;99.90
26304;DHT22;57113;48.680;8.890;2023-05-07T11:50:07;16.10;99.90
26304;DHT22;57113;48.680;8.890;2023-05-07T11:52:33;16.10;99.90
26304;DHT22;57113;48.680;8.890;2023-05-07T11:55:00;16.10;99.90
26304;DHT22;57113;48.680;8.890;2023-05-07T11:57:27;16.10;99.90
26304;DHT22;57113;48.680;8.890;2023-05-07T11:59:58;16.10;99.90
26304;DHT22;57113;48.680;8.890;2023-05-07T12:02:25;16.10;99.90
26304;DHT22;57113;48.680;8.890;2023-05-07T12:04:51;16.10;99.90
26304;DHT22;57113;48.680;8.890;2023-05-07T12:07:17;16.10;99.90
26304;DHT22;57113;48.680;8.890;2023-05-07T12:09:44;16.10;99.90
26304;DHT22;57113;48.680;8.890;2023-05-07T12:12:11;16.10;99.90
26304;DHT22;57113;48.680;8.890;2023-05-07T12:14:40;16.10;99.90
26304;DHT22;57113;48.680;8.890;2023-05-07T12:17:11;16.10;99.90
26304;DHT22;57113;48.680;8.890;2023-05-07T12:19:38;16.10;99.90
26304;DHT22;57113;48.680;8.890;2023-05-07T12:22:04;16.10;99.90
26304;DHT22;57113;48.680;8.890;2023-05-07T12:27:16;16.20;99.90
26304;DHT22;57113;48.680;8.890;2023-05-07T12:29:46;16.20;99.90
26304;DHT22;57113;48.680;8.890;2023-05-07T12:32:16;16.20;99.90
26304;DHT22;57113;48.680;8.890;2023-05-07T12:34:43;16.20;99.90
26304;DHT22;57113;48.680;8.890;2023-05-07T12:37:09;16.20;99.90
26304;DHT22;57113;48.680;8.890;2023-05-07T12:39:35;16.20;99.90
26304;DHT22;57113;48.680;8.890;2023-05-07T12:42:01;16.20;99.90
26304;DHT22;57113;48.680;8.890;2023-05-07T12:44:31;16.20;99.90
26304;DHT22;57113;48.680;8.890;2023-05-07T12:47:01;16.20;99.90
26304;DHT22;57113;48.680;8.890;2023-05-07T12:49:27;16.20;99.90
26304;DHT22;57113;48.680;8.890;2023-05-07T12:51:53;16.20;99.90
26304;DHT22;57113;48.680;8.890;2023-05-07T12:54:32;16.20;99.90
26304;DHT22;57113;48.680;8.890;2023-05-07T12:57:19;16.20;99.90
26304;DHT22;57113;48.680;8.890;2023-05-07T12:59:45;16.20;99.90
26304;DHT22;57113;48.680;8.890;2023-05-07T13:02:11;16.10;99.90
26304;DHT22;57113;48.680;8.890;2023-05-07T13:04:37;16.20;99.90
26304;DHT22;57113;48.680;8.890;2023-05-07T13:07:02;16.10;99.90
26304;DHT22;57113;48.680;8.890;2023-05-07T13:09:28;16.20;99.90
26304;DHT22;57113;48.680;8.890;2023-05-07T13:11:55;16.10;99.90
26304;DHT22;57113;48.680;8.890;2023-05-07T13:14:20;16.10;99.90
26304;DHT22;57113;48.680;8.890;2023-05-07T13:16:47;16.10;99.90
26304;DHT22;57113;48.680;8.890;2023-05-07T13:19:13;16.10;99.90
26304;DHT22;57113;48.680;8.890;2023-05-07T13:21:38;16.10;99.90
26304;DHT22;57113;48.680;8.890;2023-05-07T13:24:04;16.10;99.90
26304;DHT22;57113;48.680;8.890;2023-05-07T13:26:31;16.10;99.90
26304;DHT22;57113;48.680;8.890;2023-05-07T13:28:56;16.10;99.90
26304;DHT22;57113;48.680;8.890;2023-05-07T13:31:22;16.10;99.90
26304;DHT22;57113;48.680;8.890;2023-05-07T13:33:48;16.10;99.90
26304;DHT22;57113;48.680;8.890;2023-05-07T13:36:14;16.10;99.90
26304;DHT22;57113;48.680;8.890;2023-05-07T13:38:40;16.10;99.90
26304;DHT22;57113;48.680;8.890;2023-05-07T13:41:06;16.10;99.90
26304;DHT22;57113;48.680;8.890;2023-05-07T13:43:31;16.10;99.90
26304;DHT22;57113;48.680;8.890;2023-05-07T13:46:00;16.10;99.90
26304;DHT22;57113;48.680;8.890;2023-05-07T13:48:26;16.10;99.90
26304;DHT22;57113;48.680;8.890;2023-05-07T13:50:53;16.10;99.90
26304;DHT22;57113;48.680;8.890;2023-05-07T13:53:19;16.10;99.90
26304;DHT22;57113;48.680;8.890;2023-05-07T13:55:45;16.10;99.90
26304;DHT22;57113;48.680;8.890;2023-05-07T13:58:11;16.10;99.90
26304;DHT22;57113;48.680;8.890;2023-05-07T14:00:37;16.10;99.90
26304;DHT22;57113;48.680;8.890;2023-05-07T14:03:04;16.10;99.90
26304;DHT22;57113;48.680;8.890;2023-05-07T14:05:30;16.10;99.90
26304;DHT22;57113;48.680;8.890;2023-05-07T14:07:59;16.10;99.90
26304;DHT22;57113;48.680;8.890;2023-05-07T14:10:25;16.10;99.90
26304;DHT22;57113;48.680;8.890;2023-05-07T14:12:52;16.10;99.90
26304;DHT22;57113;48.680;8.890;2023-05-07T14:15:20;16.10;99.90
26304;DHT22;57113;48.680;8.890;2023-05-07T14:17:46;16.10;99.90
26304;DHT22;57113;48.680;8.890;2023-05-07T14:20:12;16.10;99.90
26304;DHT22;57113;48.680;8.890;2023-05-07T14:22:38;16.10;99.90
26304;DHT22;57113;48.680;8.890;2023-05-07T14:25:04;16.10;99.90
26304;DHT22;57113;48.680;8.890;2023-05-07T14:27:29;16.00;99.90
26304;DHT22;57113;48.680;8.890;2023-05-07T14:29:55;16.10;99.90
26304;DHT22;57113;48.680;8.890;2023-05-07T14:32:21;16.10;99.90
26304;DHT22;57113;48.680;8.890;2023-05-07T14:34:47;16.10;99.90
26304;DHT22;57113;48.680;8.890;2023-05-07T14:37:13;16.10;99.90
26304;DHT22;57113;48.680;8.890;2023-05-07T14:39:39;16.10;99.90
26304;DHT22;57113;48.680;8.890;2023-05-07T14:42:05;16.10;99.90
26304;DHT22;57113;48.680;8.890;2023-05-07T14:44:34;16.10;99.90
26304;DHT22;57113;48.680;8.890;2023-05-07T14:46:59;16.10;99.90
26304;DHT22;57113;48.680;8.890;2023-05-07T14:49:25;16.10;99.90
26304;DHT22;57113;48.680;8.890;2023-05-07T14:51:51;16.10;99.90
26304;DHT22;57113;48.680;8.890;2023-05-07T14:54:16;16.10;99.90
26304;DHT22;57113;48.680;8.890;2023-05-07T14:56:42;16.10;99.90
26304;DHT22;57113;48.680;8.890;2023-05-07T14:59:08;16.10;99.90
26304;DHT22;57113;48.680;8.890;2023-05-07T15:01:35;16.10;99.90
26304;DHT22;57113;48.680;8.890;2023-05-07T15:04:04;16.10;99.90
26304;DHT22;57113;48.680;8.890;2023-05-07T15:06:30;16.10;99.90
26304;DHT22;57113;48.680;8.890;2023-05-07T15:08:56;16.10;99.90
26304;DHT22;57113;48.680;8.890;2023-05-07T15:11:22;16.10;99.90
26304;DHT22;57113;48.680;8.890;2023-05-07T15:13:49;16.10;99.90
26304;DHT22;57113;48.680;8.890;2023-05-07T15:16:15;16.10;99.90
26304;DHT22;57113;48.680;8.890;2023-05-07T15:18:40;16.10;99.90
26304;DHT22;57113;48.680;8.890;2023-05-07T15:21:06;16.10;99.90
26304;DHT22;57113;48.680;8.890;2023-05-07T15:23:31;16.10;99.90
26304;DHT22;57113;48.680;8.890;2023-05-07T15:25:57;16.10;99.90
26304;DHT22;57113;48.680;8.890;2023-05-07T15:28:23;16.10;99.90
26304;DHT22;57113;48.680;8.890;2023-05-07T15:30:49;16.10;99.90
26304;DHT22;57113;48.680;8.890;2023-05-07T15:33:15;16.10;99.90
26304;DHT22;57113;48.680;8.890;2023-05-07T15:35:41;16.10;99.90
26304;DHT22;57113;48.680;8.890;2023-05-07T15:38:06;16.10;99.90
26304;DHT22;57113;48.680;8.890;2023-05-07T15:40:34;16.10;99.90
26304;DHT22;57113;48.680;8.890;2023-05-07T15:43:00;16.10;99.90
26304;DHT22;57113;48.680;8.890;2023-05-07T15:45:26;16.10;99.90